D/T METAR WX W/DIR W/SPE G/SPE TEMP DEWP
19/03/19 20:20 EGPM 192020Z AUTO 25018KT 9999 NCD 08/04 Q1011 WSW (250°) 20.7mph 8°C 4°C
19/03/19 19:50 EGPM 191950Z AUTO 26018KT 9999 BKN046/// 08/04 Q1011 W (260°) 20.7mph 8°C 4°C
19/03/19 19:20 EGPM 191920Z AUTO 26017KT 9999 FEW030/// SCT045/// 08/05 Q1011 W (260°) 19.6mph 8°C 5°C
19/03/19 18:50 EGPM 191850Z AUTO 26017KT 9999 FEW009/// SCT019/// BKN033/// 08/06 Q1010 W (260°) 19.6mph 8°C 6°C
19/03/19 18:20 EGPM 191820Z AUTO 25019KT 9999 FEW002/// OVC021/// 08/06 Q1009 WSW (250°) 21.9mph 8°C 6°C
19/03/19 17:50 EGPM 191750Z AUTO 24025G37KT 5000 -DZ OVC002/// 09/08 Q1009 REDZ -DZ WSW (240°) 28.8mph 42.6mph 9°C 8°C
19/03/19 17:20 EGPM 191720Z AUTO 23025KT 9999 OVC002/// 09/08 Q1008 SW (230°) 28.8mph 9°C 8°C
19/03/19 16:50 EGPM 191650Z AUTO 23024KT 9999 OVC002/// 09/08 Q1008 RERA SW (230°) 27.6mph 9°C 8°C
19/03/19 16:20 EGPM 191620Z AUTO 22025KT 1400 RA OVC002/// 08/08 Q1008 RERA REDZ RA SW (220°) 28.8mph 8°C 8°C
19/03/19 15:50 EGPM 191550Z AUTO 21024KT 2700 +RA BKN002/// OVC008/// 08/07 Q1008 +RA SSW (210°) 27.6mph 8°C 7°C
19/03/19 15:20 EGPM 191520Z 21026KT 6000 -RADZ FEW006 BKN010 08/07 Q1008 NOSIG -RA -DZ SSW (210°) 29.9mph 8°C 7°C
19/03/19 14:20 EGPM 191420Z 20023KT 4000 RADZ FEW007 SCT010 BKN020 08/07 Q1009 TEMPO 7000 -DZ BKN007 RA DZ SSW (200°) 26.5mph 8°C 7°C
19/03/19 13:50 EGPM 191350Z 20024KT 3000 RADZ FEW007 SCT010 BKN018 08/07 Q1009 RA DZ SSW (200°) 27.6mph 8°C 7°C
19/03/19 13:20 EGPM 191320Z 20024KT 4000 -DZ FEW007 BKN012 08/07 Q1010 TEMPO BKN007 -DZ SSW (200°) 27.6mph 8°C 7°C
19/03/19 12:50 EGPM 191250Z 20024KT 6000 -DZ FEW008 BKN012 08/07 Q1010 TEMPO 4000 RADZ BKN006 -DZ SSW (200°) 27.6mph 8°C 7°C
19/03/19 12:20 EGPM 191220Z 20024KT 8000 -RADZ FEW008 BKN012 08/07 Q1010 TEMPO BKN008 -RA -DZ SSW (200°) 27.6mph 8°C 7°C
19/03/19 11:50 EGPM 191150Z 20021KT 9000 -RADZ FEW008 BKN012 08/07 Q1011 TEMPO BKN008 -RA -DZ SSW (200°) 24.2mph 8°C 7°C
19/03/19 11:20 EGPM 191120Z 20021KT 9000 -RADZ FEW008 BKN012 08/07 Q1011 TEMPO BKN008 -RA -DZ SSW (200°) 24.2mph 8°C 7°C
19/03/19 10:50 EGPM 191050Z 21022KT 8000 -DZ FEW008 BKN012 08/07 Q1012 TEMPO BKN008 -DZ SSW (210°) 25.3mph 8°C 7°C
19/03/19 10:20 EGPM 191020Z 21021KT 8000 -DZ FEW008 BKN012 08/06 Q1012 TEMPO BKN008 -DZ SSW (210°) 24.2mph 8°C 6°C
19/03/19 09:50 EGPM 190950Z 21019KT 9999 VCSH FEW008 BKN014 08/07 Q1012 BECMG BKN016 VCSH SSW (210°) 21.9mph 8°C 7°C
19/03/19 09:20 EGPM 190920Z 21020KT 9999 VCSH FEW008 BKN012 08/07 Q1012 TEMPO SCT012 VCSH SSW (210°) 23.0mph 8°C 7°C
19/03/19 08:50 EGPM 190850Z 21019KT 9999 VCSH FEW008 BKN012 07/06 Q1012 BECMG SCT012 VCSH SSW (210°) 21.9mph 7°C 6°C
19/03/19 08:20 EGPM 190820Z 21020KT 2500 DZ FEW008 BKN010 07/06 Q1013 TEMPO 5000 -DZ BKN008 DZ SSW (210°) 23.0mph 7°C 6°C
19/03/19 07:50 EGPM 190750Z 20019KT 8000 -RADZ FEW008 BKN012 07/06 Q1013 TEMPO BKN008 -RA -DZ SSW (200°) 21.9mph 7°C 6°C
19/03/19 07:20 EGPM 190720Z 19019KT 9999 -SHRA FEW010 SCT018 07/06 Q1013 NOSIG -SHRA S (190°) 21.9mph 7°C 6°C
19/03/19 06:50 EGPM 190650Z 19017KT 9999 -SHRA FEW010 07/05 Q1013 NOSIG -SHRA S (190°) 19.6mph 7°C 5°C
19/03/19 06:20 EGPM 190620Z 19015KT 9999 FEW010 BKN018 07/06 Q1014 S (190°) 17.3mph 7°C 6°C
19/03/19 05:50 EGPM 190550Z AUTO 19016KT //// ////// 07/05 Q1014 S (190°) 18.4mph 7°C 5°C
19/03/19 05:20 EGPM 190520Z AUTO 20018KT //// ////// 07/05 Q1014 SSW (200°) 20.7mph 7°C 5°C
19/03/19 04:50 EGPM 190450Z AUTO 19016KT //// ////// 07/05 Q1014 S (190°) 18.4mph 7°C 5°C
19/03/19 04:20 EGPM 190420Z AUTO 20017KT //// ////// 07/05 Q1014 SSW (200°) 19.6mph 7°C 5°C
19/03/19 03:50 EGPM 190350Z AUTO 19016KT //// ////// 06/04 Q1015 S (190°) 18.4mph 6°C 4°C
19/03/19 03:20 EGPM 190320Z AUTO 19017KT //// ////// 06/03 Q1015 S (190°) 19.6mph 6°C 3°C
19/03/19 02:50 EGPM 190250Z AUTO 19016KT //// ////// 06/03 Q1015 S (190°) 18.4mph 6°C 3°C
19/03/19 02:20 EGPM 190220Z AUTO 19014KT //// ////// 05/03 Q1016 S (190°) 16.1mph 5°C 3°C
19/03/19 01:50 EGPM 190150Z AUTO 19014KT //// ////// 05/02 Q1016 S (190°) 16.1mph 5°C 2°C
19/03/19 01:20 EGPM 190120Z AUTO 18013KT //// ////// 05/02 Q1016 S (180°) 15.0mph 5°C 2°C
19/03/19 00:50 EGPM 190050Z AUTO 18013KT //// ////// 05/02 Q1016 S (180°) 15.0mph 5°C 2°C
19/03/19 00:20 EGPM 190020Z AUTO 19014KT //// ////// 05/02 Q1017 S (190°) 16.1mph 5°C 2°C
18/03/19 23:50 EGPM 182350Z AUTO 18013KT //// ////// 05/02 Q1017 S (180°) 15.0mph 5°C 2°C
18/03/19 23:20 EGPM 182320Z AUTO 18012KT //// ////// 04/02 Q1017 S (180°) 13.8mph 4°C 2°C
18/03/19 22:50 EGPM 182250Z AUTO 19013KT //// ////// 04/01 Q1017 S (190°) 15.0mph 4°C 1°C
18/03/19 22:20 EGPM 182220Z AUTO 18013KT //// ////// 04/01 Q1017 S (180°) 15.0mph 4°C 1°C
18/03/19 21:50 EGPM 182150Z AUTO 18011KT //// ////// 04/01 Q1017 S (180°) 12.7mph 4°C 1°C
18/03/19 21:20 EGPM 182120Z AUTO 18011KT //// ////// 04/01 Q1017 S (180°) 12.7mph 4°C 1°C
18/03/19 20:50 EGPM 182050Z AUTO 18010KT //// ////// 04/00 Q1017 S (180°) 11.5mph 4°C 0°C
18/03/19 20:20 EGPM 182020Z AUTO 18010KT //// ////// 03/M00 Q1017 S (180°) 11.5mph 3°C 0°C
18/03/19 19:50 EGPM 181950Z AUTO 18010KT //// ////// 03/M01 Q1017 S (180°) 11.5mph 3°C -1°C
18/03/19 19:20 EGPM 181920Z AUTO 17011KT //// ////// 03/M01 Q1017 S (170°) 12.7mph 3°C -1°C
18/03/19 18:50 EGPM 181850Z AUTO 17011KT //// ////// 03/M02 Q1017 S (170°) 12.7mph 3°C -2°C
18/03/19 18:20 EGPM 181820Z AUTO 18007KT //// ////// 02/M02 Q1017 S (180°) 8.1mph 2°C -2°C
18/03/19 17:50 EGPM 181750Z 19006KT CAVOK 04/M01 Q1017 NOSIG S (190°) 6.9mph 4°C -1°C
18/03/19 17:20 EGPM 181720Z 22007KT CAVOK 05/M02 Q1017 NOSIG SW (220°) 8.1mph 5°C -2°C
18/03/19 16:50 EGPM 181650Z 26006KT CAVOK 06/M02 Q1016 NOSIG W (260°) 6.9mph 6°C -2°C
18/03/19 16:20 EGPM 181620Z 25006KT CAVOK 06/M03 Q1016 NOSIG WSW (250°) 6.9mph 6°C -3°C
18/03/19 15:50 EGPM 181550Z 24006KT CAVOK 06/M03 Q1016 NOSIG WSW (240°) 6.9mph 6°C -3°C
18/03/19 15:20 EGPM 181520Z 25007KT 9999 FEW030 06/M03 Q1016 NOSIG WSW (250°) 8.1mph 6°C -3°C
18/03/19 14:50 EGPM 181450Z 25006KT 210V270 9999 FEW030 06/M03 Q1015 NOSIG WSW (250°) 6.9mph 6°C -3°C
18/03/19 14:20 EGPM 181420Z 25006KT 220V280 9999 FEW030 07/M03 Q1015 NOSIG WSW (250°) 6.9mph 7°C -3°C
18/03/19 13:50 EGPM 181350Z 24007KT 160V300 9999 FEW030 06/M02 Q1015 NOSIG WSW (240°) 8.1mph 6°C -2°C
18/03/19 13:20 EGPM 181320Z VRB03KT 9999 FEW030 07/M03 Q1015 N (0°) 3.5mph 7°C -3°C
18/03/19 12:50 EGPM 181250Z 28006KT 210V340 9999 FEW030 07/M02 Q1015 W (280°) 6.9mph 7°C -2°C
18/03/19 12:20 EGPM 181220Z VRB03KT 9999 FEW025 06/M04 Q1014 NOSIG N (0°) 3.5mph 6°C -4°C
18/03/19 11:50 EGPM 181150Z 28007KT 250V320 9999 FEW025 06/M03 Q1014 NOSIG W (280°) 8.1mph 6°C -3°C
18/03/19 11:20 EGPM 181120Z 28005KT 250V330 9999 FEW025 06/M03 Q1014 NOSIG W (280°) 5.8mph 6°C -3°C
18/03/19 10:50 EGPM 181050Z 31007KT 9999 FEW025 05/M02 Q1014 NOSIG NW (310°) 8.1mph 5°C -2°C
18/03/19 10:20 EGPM 181020Z 30006KT 260V320 9999 FEW025 05/M03 Q1013 NOSIG WNW (300°) 6.9mph 5°C -3°C
18/03/19 09:50 EGPM 180950Z 31008KT 9999 FEW025 06/M02 Q1013 NW (310°) 9.2mph 6°C -2°C
18/03/19 08:50 EGPM 180850Z 29008KT 260V320 9999 FEW025 05/M03 Q1012 NOSIG WNW (290°) 9.2mph 5°C -3°C
18/03/19 08:20 EGPM 180820Z 29007KT 9999 FEW025 05/M03 Q1012 NOSIG WNW (290°) 8.1mph 5°C -3°C
18/03/19 07:50 EGPM 180750Z 30007KT 9999 FEW025 04/M03 Q1011 NOSIG WNW (300°) 8.1mph 4°C -3°C
18/03/19 07:20 EGPM 180720Z 30007KT 9999 FEW025 03/M03 Q1011 NOSIG WNW (300°) 8.1mph 3°C -3°C
18/03/19 06:50 EGPM 180650Z 31008KT 9999 FEW025 03/M03 Q1011 NOSIG NW (310°) 9.2mph 3°C -3°C
18/03/19 05:50 EGPM 180550Z AUTO 30007KT 9999 BKN039/// 04/M03 Q1010 WNW (300°) 8.1mph 4°C -3°C
18/03/19 05:20 EGPM 180520Z AUTO 30010KT 9999 BKN039/// 04/M02 Q1009 WNW (300°) 11.5mph 4°C -2°C
18/03/19 04:50 EGPM 180450Z AUTO 31010KT 9999 BKN042/// 04/M02 Q1009 NW (310°) 11.5mph 4°C -2°C
18/03/19 04:20 EGPM 180420Z AUTO 32010KT 9999 BKN041/// 04/M02 Q1009 NW (320°) 11.5mph 4°C -2°C
18/03/19 03:20 EGPM 180320Z AUTO 31009KT 9999 FEW024/// BKN036/// 04/M02 Q1008 NW (310°) 10.4mph 4°C -2°C
18/03/19 02:50 EGPM 180250Z AUTO 33011KT 9999 BKN034/// 04/M01 Q1008 NNW (330°) 12.7mph 4°C -1°C
18/03/19 02:20 EGPM 180220Z AUTO 33011KT 9999 -RA BKN029/// BKN044/// 04/00 Q1008 -RA NNW (330°) 12.7mph 4°C 0°C
18/03/19 01:50 EGPM 180150Z AUTO 33012KT 9999 FEW032/// BKN038/// 04/M00 Q1007 NNW (330°) 13.8mph 4°C 0°C
18/03/19 01:20 EGPM 180120Z AUTO 33015KT 9999 FEW027/// BKN037/// 04/00 Q1007 NNW (330°) 17.3mph 4°C 0°C
18/03/19 00:50 EGPM 180050Z AUTO 34013KT 9999 FEW004/// BKN030/// BKN044/// 04/00 Q1006 NNW (340°) 15.0mph 4°C 0°C
18/03/19 00:20 EGPM 180020Z AUTO 33013KT 9999 NCD 04/M00 Q1006 NNW (330°) 15.0mph 4°C 0°C
17/03/19 23:50 EGPM 172350Z AUTO 32014KT 9999 FEW048/// 04/00 Q1006 NW (320°) 16.1mph 4°C 0°C
17/03/19 23:20 EGPM 172320Z AUTO 33016KT 9999 FEW002/// BKN043/// 03/01 Q1005 NNW (330°) 18.4mph 3°C 1°C
17/03/19 22:50 EGPM 172250Z AUTO 32017G27KT 6000 FEW004/// SCT031/// BKN045/// 04/00 Q1005 NW (320°) 19.6mph 31.1mph 4°C 0°C
17/03/19 22:20 EGPM 172220Z AUTO 33018KT 9999 FEW047/// 04/00 Q1004 NNW (330°) 20.7mph 4°C 0°C
17/03/19 21:50 EGPM 172150Z AUTO 33021KT 9999 FEW006/// SCT018/// BKN028/// 03/00 Q1004 NNW (330°) 24.2mph 3°C 0°C
17/03/19 21:20 EGPM 172120Z AUTO 33019KT 9999 BKN036/// 05/M01 Q1004 NNW (330°) 21.9mph 5°C -1°C
17/03/19 20:50 EGPM 172050Z AUTO 34022KT 9999 BKN039/// 05/M02 Q1003 NNW (340°) 25.3mph 5°C -2°C
17/03/19 20:20 EGPM 172020Z AUTO 34022KT 9999 BKN037/// 05/M01 Q1003 NNW (340°) 25.3mph 5°C -1°C
17/03/19 19:50 EGPM 171950Z AUTO 01020G32KT 9999 FEW008/// BKN026/// 04/00 Q1002 RERA N (10°) 23.0mph 36.8mph 4°C 0°C
17/03/19 19:20 EGPM 171920Z AUTO 35022KT 9999 FEW004/// SCT042/// 05/M01 Q1001 N (350°) 25.3mph 5°C -1°C
17/03/19 18:50 EGPM 171850Z AUTO 35021KT 9999 FEW005/// BKN030/// BKN049/// 05/01 Q1001 N (350°) 24.2mph 5°C 1°C
17/03/19 18:20 EGPM 171820Z AUTO 35023KT 9999 FEW041/// 05/M01 Q1000 N (350°) 26.5mph 5°C -1°C
17/03/19 17:50 EGPM 171750Z AUTO 36025G36KT 9999 SCT030/// 05/M01 Q0999 N (360°) 28.8mph 41.4mph 5°C -1°C
17/03/19 17:20 EGPM 171720Z AUTO 35023G34KT 9999 FEW009/// 05/M02 Q0999 N (350°) 26.5mph 39.1mph 5°C -2°C
17/03/19 16:50 EGPM 171650Z AUTO 36024G39KT 9999 -RA FEW009/// BKN022/// BKN038/// 04/01 Q0998 -RA N (360°) 27.6mph 44.9mph 4°C 1°C
17/03/19 16:20 EGPM 171620Z AUTO 36025G35KT 9999 FEW002/// SCT021/// BKN037/// 05/00 Q0997 N (360°) 28.8mph 40.3mph 5°C 0°C
17/03/19 15:50 EGPM 171550Z AUTO 36027G44KT 9999 -RA FEW000/// BKN022/// BKN037/// 04/01 Q0997 RERA -RA N (360°) 31.1mph 50.6mph 4°C 1°C
17/03/19 15:20 EGPM 171520Z AUTO 36028G39KT 9999 SCT036/// 06/M01 Q0995 N (360°) 32.2mph 44.9mph 6°C -1°C
17/03/19 14:50 EGPM 171450Z AUTO 36026G38KT 9999 SCT033/// 06/M01 Q0995 N (360°) 29.9mph 43.7mph 6°C -1°C
17/03/19 14:20 EGPM 171420Z AUTO 36025G35KT 9999 BKN035/// 06/M00 Q0994 N (360°) 28.8mph 40.3mph 6°C 0°C
17/03/19 13:50 EGPM 171350Z AUTO 36029G41KT 9999 SCT035/// BKN049/// 06/00 Q0994 N (360°) 33.4mph 47.2mph 6°C 0°C
17/03/19 13:20 EGPM 171320Z AUTO 36025G39KT 9999 FEW008/// SCT019/// BKN034/// 06/00 Q0992 RERA N (360°) 28.8mph 44.9mph 6°C 0°C
17/03/19 12:50 EGPM 171250Z AUTO 36028KT 9999 FEW010/// SCT020/// 05/02 Q0992 N (360°) 32.2mph 5°C 2°C
17/03/19 12:20 EGPM 171220Z AUTO 36033G49KT 9999 FEW006/// SCT025/// 05/01 Q0991 N (360°) 38.0mph 56.4mph 5°C 1°C
17/03/19 11:50 EGPM 171150Z AUTO 01031G42KT 9999 FEW010/// SCT016/// 06/01 Q0990 N (10°) 35.7mph 48.3mph 6°C 1°C
17/03/19 11:20 EGPM 171120Z AUTO 01028G39KT 9999 FEW019/// SCT024/// BKN037/// 06/02 Q0989 N (10°) 32.2mph 44.9mph 6°C 2°C
17/03/19 10:50 EGPM 171050Z AUTO 36028G40KT 9999 FEW005/// BKN021/// 05/01 Q0989 N (360°) 32.2mph 46.0mph 5°C 1°C
17/03/19 10:20 EGPM 171020Z AUTO 36025G40KT 5000 -RA FEW005/// SCT019/// BKN033/// 04/01 Q0989 -RA N (360°) 28.8mph 46.0mph 4°C 1°C
17/03/19 09:50 EGPM 170950Z AUTO 01025G38KT 9999 FEW036/// BKN047/// 06/M01 Q0987 N (10°) 28.8mph 43.7mph 6°C -1°C
17/03/19 09:20 EGPM 170920Z AUTO 02021KT 9999 BKN028/// BKN040/// 06/00 Q0987 NNE (20°) 24.2mph 6°C 0°C
17/03/19 08:50 EGPM 170850Z AUTO 01020G31KT 9999 FEW010/// SCT036/// 05/M01 Q0987 N (10°) 23.0mph 35.7mph 5°C -1°C
17/03/19 08:20 EGPM 170820Z AUTO 01024G36KT 9999 SCT029/// BKN043/// 05/M01 Q0986 N (10°) 27.6mph 41.4mph 5°C -1°C
17/03/19 07:50 EGPM 170750Z AUTO 01021G31KT 9999 FEW006/// SCT018/// BKN030/// 04/00 Q0986 N (10°) 24.2mph 35.7mph 4°C 0°C
17/03/19 07:20 EGPM 170720Z AUTO 01020KT 9999 -RA FEW020/// BKN029/// OVC044/// 05/00 Q0985 -RA N (10°) 23.0mph 5°C 0°C
17/03/19 06:50 EGPM 170650Z AUTO 02019KT 9999 OVC040/// 05/00 Q0985 NNE (20°) 21.9mph 5°C 0°C
17/03/19 06:20 EGPM 170620Z AUTO 02020KT 9999 BKN043/// 05/M01 Q0984 NNE (20°) 23.0mph 5°C -1°C
17/03/19 05:50 EGPM 170550Z AUTO 02022KT 9999 BKN031/// BKN047/// 05/M00 Q0984 NNE (20°) 25.3mph 5°C 0°C
17/03/19 05:20 EGPM 170520Z AUTO 02022KT 9999 OVC028/// 05/01 Q0983 NNE (20°) 25.3mph 5°C 1°C
17/03/19 04:50 EGPM 170450Z AUTO 03019KT 9999 FEW010/// SCT019/// BKN032/// 05/01 Q0983 NNE (30°) 21.9mph 5°C 1°C
17/03/19 04:20 EGPM 170420Z AUTO 03017KT 9999 FEW021/// BKN036/// 05/02 Q0983 NNE (30°) 19.6mph 5°C 2°C
17/03/19 03:50 EGPM 170350Z AUTO 03016G26KT 9999 -RA SCT011/// BKN023/// BKN044/// 05/02 Q0982 -RA NNE (30°) 18.4mph 29.9mph 5°C 2°C
17/03/19 03:20 EGPM 170320Z AUTO 02013KT 9999 FEW023/// 04/03 Q0982 NNE (20°) 15.0mph 4°C 3°C
17/03/19 02:50 EGPM 170250Z AUTO 05007KT 9999 BKN015/// BKN045/// 03/02 Q0982 RERA NE (50°) 8.1mph 3°C 2°C
17/03/19 02:20 EGPM 170220Z AUTO 03010KT 350V060 3900 RA SCT002/// BKN009/// OVC020/// 04/02 Q0982 RERA RA NNE (30°) 11.5mph 4°C 2°C
17/03/19 01:50 EGPM 170150Z AUTO 02010KT 9999 -RA FEW007/// SCT010/// BKN019/// 04/02 Q0982 -RA NNE (20°) 11.5mph 4°C 2°C
17/03/19 01:20 EGPM 170120Z AUTO 32006KT 260V350 9999 -RA BKN008/// 04/02 Q0982 RERA -RA NW (320°) 6.9mph 4°C 2°C
17/03/19 00:50 EGPM 170050Z AUTO VRB03KT 9999 -RA BKN009/// OVC029/// 03/02 Q0982 -RA N (0°) 3.5mph 3°C 2°C
17/03/19 00:20 EGPM 170020Z AUTO VRB03KT 8000 -RA FEW003/// BKN007/// OVC016/// 03/02 Q0982 -RA N (0°) 3.5mph 3°C 2°C
16/03/19 23:50 EGPM 162350Z AUTO 00000KT 9999 BKN005/// 03/02 Q0982 N (0°) 3°C 2°C
16/03/19 23:20 EGPM 162320Z AUTO 12003KT 9999 FEW004/// SCT016/// BKN033/// 02/01 Q0983 ESE (120°) 3.5mph 2°C 1°C
16/03/19 22:50 EGPM 162250Z AUTO 05011KT 6000 -RA FEW008/// BKN014/// OVC036/// 03/01 Q0983 -RA NE (50°) 12.7mph 3°C 1°C
16/03/19 22:20 EGPM 162220Z AUTO VRB03KT 9999 FEW016/// BKN026/// 03/02 Q0983 N (0°) 3.5mph 3°C 2°C
16/03/19 21:50 EGPM 162150Z AUTO VRB03KT 9999 -RA FEW002/// BKN011/// OVC023/// 03/02 Q0983 -RA N (0°) 3.5mph 3°C 2°C
16/03/19 21:20 EGPM 162120Z AUTO 14005KT 110V170 9999 BKN008/// OVC024/// 03/02 Q0983 RERA SE (140°) 5.8mph 3°C 2°C
16/03/19 20:50 EGPM 162050Z AUTO 10010KT 040V130 5000 -RA FEW002/// BKN010/// BKN024/// 03/01 Q0984 -RA E (100°) 11.5mph 3°C 1°C
16/03/19 20:20 EGPM 162020Z AUTO VRB01KT 9999 NCD 04/02 Q0984 N (0°) 1.2mph 4°C 2°C
16/03/19 19:50 EGPM 161950Z AUTO 10003KT 9999 SCT019/// 03/02 Q0984 E (100°) 3.5mph 3°C 2°C
16/03/19 19:20 EGPM 161920Z AUTO 10004KT 9999 FEW020/// 03/02 Q0984 E (100°) 4.6mph 3°C 2°C
16/03/19 18:50 EGPM 161850Z AUTO VRB02KT 9999 FEW033/// 04/02 Q0984 N (0°) 2.3mph 4°C 2°C